Time;durP1;ratioP1;P1;durP2;ratioP2;P2;SDS_P1;SDS_P2;PMS_P1;PMS_P2;Temp;Humidity;BMP_temperature;BMP_pressure;BME280_temperature;BME280_humidity;BME280_pressure;Samples;Min_cycle;Max_cycle;Signal;HPM_P1;HPM_P2
2023/11/24 00:02:09;;;;;;;5.00;1.30;;;11.40;99.90;;;;;;5024494;28;20045;-67
2023/11/24 00:04:37;;;;;;;6.90;1.55;;;11.40;99.90;;;;;;5021394;28;20045;-69
2023/11/24 00:07:04;;;;;;;7.78;1.42;;;11.30;99.90;;;;;;5022213;28;20050;-69
2023/11/24 00:09:31;;;;;;;3.42;1.30;;;11.30;99.90;;;;;;5012678;28;20053;-69
2023/11/24 00:12:00;;;;;;;4.22;1.33;;;11.20;99.90;;;;;;5025342;28;20045;-68
2023/11/24 00:14:27;;;;;;;2.75;1.00;;;11.20;99.90;;;;;;5020377;28;20049;-66
2023/11/24 00:16:54;;;;;;;6.03;1.23;;;11.10;99.90;;;;;;5023408;28;20056;-69
2023/11/24 00:19:21;;;;;;;7.80;1.88;;;11.00;99.90;;;;;;5017502;28;20077;-70
2023/11/24 00:21:49;;;;;;;5.80;1.42;;;11.00;99.90;;;;;;5024487;28;20042;-69
2023/11/24 00:24:16;;;;;;;7.50;1.77;;;11.00;99.90;;;;;;5019764;28;20128;-69
2023/11/24 00:26:43;;;;;;;11.25;1.95;;;11.00;99.90;;;;;;5003588;28;20099;-69
2023/11/24 00:29:10;;;;;;;8.93;1.38;;;10.90;99.90;;;;;;5027245;28;20049;-69
2023/11/24 00:31:37;;;;;;;11.57;2.03;;;10.90;99.90;;;;;;5009361;28;20053;-68
2023/11/24 00:34:07;;;;;;;13.70;2.13;;;10.90;99.90;;;;;;5027145;28;20065;-69
2023/11/24 00:36:35;;;;;;;11.48;1.85;;;10.90;99.90;;;;;;5023673;28;20046;-69
2023/11/24 00:39:04;;;;;;;11.45;1.58;;;10.70;99.90;;;;;;5026626;28;20045;-68
2023/11/24 00:41:30;;;;;;;6.28;1.40;;;10.70;99.90;;;;;;5027341;28;20132;-69
2023/11/24 00:43:57;;;;;;;13.70;2.38;;;10.70;99.90;;;;;;5009884;28;20041;-69
2023/11/24 00:46:24;;;;;;;12.02;2.72;;;10.60;99.90;;;;;;5025369;28;20056;-69
2023/11/24 00:48:52;;;;;;;9.13;1.70;;;10.60;99.90;;;;;;5027161;28;20099;-69
2023/11/24 00:51:18;;;;;;;9.77;1.98;;;10.60;99.90;;;;;;5028739;28;20064;-68
2023/11/24 00:53:45;;;;;;;9.35;1.70;;;10.60;99.90;;;;;;5036440;28;20053;-68
2023/11/24 00:56:12;;;;;;;8.82;2.20;;;10.60;99.90;;;;;;5026906;28;20052;-69
2023/11/24 00:58:40;;;;;;;11.23;2.17;;;10.60;99.90;;;;;;5027027;28;20053;-69
2023/11/24 01:01:09;;;;;;;12.50;3.30;;;10.60;99.90;;;;;;5026013;28;20046;-68
2023/11/24 01:03:36;;;;;;;9.68;1.73;;;10.60;99.90;;;;;;5027192;28;20488;-69
2023/11/24 01:06:03;;;;;;;15.25;2.92;;;10.60;99.90;;;;;;5025426;28;20053;-69
2023/11/24 01:08:33;;;;;;;12.43;2.17;;;10.60;99.90;;;;;;5027207;28;20057;-69
2023/11/24 01:11:02;;;;;;;15.63;2.28;;;10.60;99.90;;;;;;5027471;28;20135;-69
2023/11/24 01:13:32;;;;;;;12.88;3.00;;;10.60;99.90;;;;;;5025697;28;20055;-68
2023/11/24 01:15:59;;;;;;;13.20;3.00;;;10.60;99.90;;;;;;5027289;28;20120;-69
2023/11/24 01:18:27;;;;;;;14.85;1.90;;;10.60;99.90;;;;;;5022326;28;20053;-69
2023/11/24 01:20:54;;;;;;;8.65;2.17;;;10.60;99.90;;;;;;5027230;28;20046;-69
2023/11/24 01:23:21;;;;;;;16.15;2.85;;;10.60;99.90;;;;;;5025455;28;20069;-68
2023/11/24 01:25:48;;;;;;;14.57;2.72;;;10.60;99.90;;;;;;5027098;28;20038;-70
2023/11/24 01:28:15;;;;;;;16.33;3.10;;;10.60;99.90;;;;;;5026866;28;20042;-69
2023/11/24 01:30:43;;;;;;;13.38;2.78;;;10.60;99.90;;;;;;5027059;28;20041;-68
2023/11/24 01:33:10;;;;;;;15.65;3.65;;;10.60;99.90;;;;;;5026571;28;20469;-69
2023/11/24 01:35:37;;;;;;;11.77;2.45;;;10.60;99.90;;;;;;5027188;28;20045;-69
2023/11/24 01:38:03;;;;;;;19.27;2.88;;;10.60;99.90;;;;;;5025982;28;20152;-69
2023/11/24 01:40:31;;;;;;;14.07;2.63;;;10.60;99.90;;;;;;5024285;28;20127;-69
2023/11/24 01:42:57;;;;;;;18.95;2.58;;;10.60;99.90;;;;;;5009382;28;20397;-68
2023/11/24 01:45:24;;;;;;;8.85;2.22;;;10.60;99.90;;;;;;5026252;28;20112;-69
2023/11/24 01:47:52;;;;;;;18.48;3.58;;;10.60;99.90;;;;;;5029491;28;20480;-69
2023/11/24 01:50:19;;;;;;;16.08;3.45;;;10.70;99.90;;;;;;5030251;28;20049;-68
2023/11/24 01:52:47;;;;;;;16.52;2.88;;;10.60;99.90;;;;;;5011315;28;20061;-68
2023/11/24 01:55:16;;;;;;;13.63;2.92;;;10.70;99.90;;;;;;5030420;28;20106;-69
2023/11/24 01:57:43;;;;;;;11.82;2.97;;;10.70;99.90;;;;;;5013341;28;20111;-69
2023/11/24 02:00:13;;;;;;;9.18;2.45;;;10.70;99.90;;;;;;5012414;28;20176;-69
2023/11/24 02:02:43;;;;;;;14.18;2.67;;;10.70;99.90;;;;;;5028246;28;20049;-69
2023/11/24 02:05:11;;;;;;;12.02;2.03;;;10.70;99.90;;;;;;5030141;28;20136;-69
2023/11/24 02:07:41;;;;;;;15.52;2.63;;;10.70;99.90;;;;;;4679564;28;9999892;-68
2023/11/24 02:10:11;;;;;;;16.80;2.88;;;10.70;99.90;;;;;;5027353;28;20492;-68
2023/11/24 02:12:38;;;;;;;17.17;2.55;;;10.70;99.90;;;;;;5007165;28;20042;-69
2023/11/24 02:15:09;;;;;;;11.80;3.03;;;10.70;99.90;;;;;;5012181;28;20049;-69
2023/11/24 02:17:36;;;;;;;14.25;2.83;;;10.70;99.90;;;;;;5013249;28;20081;-68
2023/11/24 02:20:06;;;;;;;14.63;2.83;;;10.70;99.90;;;;;;5030109;28;20049;-68
2023/11/24 02:22:43;;;;;;;15.63;2.90;;;10.60;99.90;;;;;;5013288;28;20049;-69
2023/11/24 02:25:14;;;;;;;24.00;4.88;;;10.60;99.90;;;;;;5029762;28;20045;-68
2023/11/24 02:27:41;;;;;;;17.75;2.58;;;10.60;99.90;;;;;;5010912;28;20046;-69
2023/11/24 02:30:09;;;;;;;17.40;3.25;;;10.60;99.90;;;;;;5009427;28;20412;-68
2023/11/24 02:32:40;;;;;;;12.82;3.15;;;10.60;99.90;;;;;;5030163;28;20136;-69
2023/11/24 02:35:10;;;;;;;15.98;2.60;;;10.50;99.90;;;;;;5012764;28;20819;-69
2023/11/24 02:37:37;;;;;;;18.77;3.00;;;10.50;99.90;;;;;;5030343;28;20107;-69
2023/11/24 02:40:05;;;;;;;23.58;3.22;;;10.50;99.90;;;;;;5028876;28;20251;-69
2023/11/24 02:42:32;;;;;;;19.33;2.80;;;10.50;99.90;;;;;;5029673;28;20504;-68
2023/11/24 02:44:59;;;;;;;16.13;2.75;;;10.50;99.90;;;;;;5029460;28;20037;-68
2023/11/24 02:47:26;;;;;;;15.48;3.60;;;10.50;99.90;;;;;;5028493;28;20046;-69
2023/11/24 02:49:53;;;;;;;22.38;3.78;;;10.40;99.90;;;;;;5027740;28;20610;-68
2023/11/24 02:52:23;;;;;;;17.67;2.83;;;10.40;99.90;;;;;;5027097;28;20050;-71
2023/11/24 02:54:52;;;;;;;12.02;2.53;;;10.40;99.90;;;;;;5022265;28;20518;-69
2023/11/24 02:57:19;;;;;;;13.57;2.35;;;10.40;99.90;;;;;;5026458;28;20045;-69
2023/11/24 02:59:46;;;;;;;15.40;2.58;;;10.40;99.90;;;;;;5010268;28;20423;-69
2023/11/24 03:02:13;;;;;;;15.38;3.58;;;10.40;99.90;;;;;;5028718;28;20481;-69
2023/11/24 03:04:40;;;;;;;16.52;2.95;;;10.40;99.90;;;;;;5028512;28;20054;-69
2023/11/24 03:07:09;;;;;;;13.90;2.45;;;10.30;99.90;;;;;;5028643;28;20053;-70
2023/11/24 03:09:36;;;;;;;11.07;2.25;;;10.30;99.90;;;;;;5029222;28;20053;-69
2023/11/24 03:12:03;;;;;;;15.50;2.67;;;10.30;99.90;;;;;;5009707;28;20041;-69
2023/11/24 03:14:30;;;;;;;18.02;2.90;;;10.30;99.90;;;;;;5028941;28;20084;-69
2023/11/24 03:16:57;;;;;;;10.55;2.30;;;10.30;99.90;;;;;;5025497;28;20037;-69
2023/11/24 03:19:24;;;;;;;21.38;3.25;;;10.30;99.90;;;;;;5011481;28;20050;-69
2023/11/24 03:21:51;;;;;;;11.60;2.75;;;10.30;99.90;;;;;;4994252;28;20046;-70
2023/11/24 03:24:18;;;;;;;9.75;2.20;;;10.30;99.90;;;;;;5014838;28;20045;-70
2023/11/24 03:26:45;;;;;;;14.88;2.80;;;10.30;99.90;;;;;;5025678;28;20099;-69
2023/11/24 03:29:12;;;;;;;18.10;2.47;;;10.30;99.90;;;;;;5028532;28;20130;-70
2023/11/24 03:31:39;;;;;;;17.63;2.88;;;10.30;99.90;;;;;;5027590;28;20111;-69
2023/11/24 03:34:06;;;;;;;13.13;2.45;;;10.30;99.90;;;;;;5028001;28;20041;-70
2023/11/24 03:36:33;;;;;;;28.20;4.93;;;10.20;99.90;;;;;;5026398;28;20045;-69
2023/11/24 03:39:00;;;;;;;16.58;1.70;;;10.20;99.90;;;;;;5027225;28;20049;-69
2023/11/24 03:41:27;;;;;;;20.63;3.35;;;10.20;99.90;;;;;;5027800;28;20042;-70
2023/11/24 03:43:54;;;;;;;16.42;2.45;;;10.10;99.90;;;;;;5027823;28;20492;-69
2023/11/24 03:46:21;;;;;;;20.73;2.72;;;10.10;99.90;;;;;;5028118;28;20049;-69
2023/11/24 03:48:47;;;;;;;15.77;2.53;;;10.10;99.90;;;;;;5027835;28;20061;-69
2023/11/24 03:51:18;;;;;;;19.27;2.83;;;10.10;99.90;;;;;;5010462;28;20065;-69
2023/11/24 03:53:45;;;;;;;17.00;3.05;;;10.10;99.90;;;;;;5027477;28;20103;-69
2023/11/24 03:56:15;;;;;;;17.55;4.35;;;10.10;99.90;;;;;;5028050;28;20061;-69
2023/11/24 03:58:42;;;;;;;24.88;3.75;;;10.10;99.90;;;;;;5006895;28;20048;-69
2023/11/24 04:01:15;;;;;;;10.80;2.55;;;10.00;99.90;;;;;;5026473;28;20041;-69
2023/11/24 04:03:46;;;;;;;11.85;2.97;;;10.00;99.90;;;;;;5026257;28;20049;-69
2023/11/24 04:06:14;;;;;;;15.35;2.78;;;10.00;99.90;;;;;;5025630;28;20045;-68
2023/11/24 04:08:42;;;;;;;17.38;3.08;;;10.00;99.90;;;;;;5007211;28;20093;-69
2023/11/24 04:11:10;;;;;;;22.80;3.30;;;10.10;99.90;;;;;;4994009;28;20037;-69
2023/11/24 04:13:37;;;;;;;16.00;3.05;;;10.00;99.90;;;;;;5009341;28;20061;-69
2023/11/24 04:16:05;;;;;;;23.70;4.38;;;10.00;99.90;;;;;;5027789;28;20041;-69
2023/11/24 04:18:32;;;;;;;18.10;3.20;;;10.00;99.90;;;;;;5026911;28;20049;-69
2023/11/24 04:20:59;;;;;;;25.00;5.25;;;10.00;99.90;;;;;;4994023;28;20045;-69
2023/11/24 04:23:26;;;;;;;23.80;4.25;;;10.00;99.90;;;;;;5009644;28;20455;-72
2023/11/24 04:25:53;;;;;;;17.17;3.47;;;10.00;99.90;;;;;;5010057;28;20435;-69
2023/11/24 04:28:19;;;;;;;22.60;3.22;;;10.00;99.90;;;;;;5006376;28;20049;-69
2023/11/24 04:30:46;;;;;;;15.43;3.13;;;10.00;99.90;;;;;;5027084;28;20115;-69
2023/11/24 04:33:13;;;;;;;20.80;3.55;;;10.00;99.90;;;;;;5025028;28;20038;-69
2023/11/24 04:35:40;;;;;;;24.38;5.20;;;9.90;99.90;;;;;;5009843;28;20049;-68
2023/11/24 04:38:07;;;;;;;18.80;3.55;;;9.90;99.90;;;;;;5026680;28;20049;-70
2023/11/24 04:40:34;;;;;;;16.63;2.92;;;9.90;99.90;;;;;;5010270;28;20045;-70
2023/11/24 04:43:00;;;;;;;19.30;3.00;;;9.90;99.90;;;;;;5026546;28;20053;-69
2023/11/24 04:45:27;;;;;;;18.75;4.28;;;10.10;99.90;;;;;;5027158;28;20172;-70
2023/11/24 04:47:54;;;;;;;18.33;2.65;;;9.90;99.90;;;;;;5024849;28;20099;-70
2023/11/24 04:50:21;;;;;;;13.63;2.83;;;9.90;99.90;;;;;;5025402;28;20391;-69
2023/11/24 04:52:48;;;;;;;21.88;3.97;;;9.90;99.90;;;;;;5026977;28;20037;-70
2023/11/24 04:55:15;;;;;;;14.30;2.83;;;9.70;99.90;;;;;;5009426;28;20175;-69
2023/11/24 04:57:42;;;;;;;14.45;2.30;;;10.00;99.90;;;;;;5020970;28;20042;-70
2023/11/24 05:00:10;;;;;;;19.48;2.90;;;10.00;99.90;;;;;;5008034;28;20046;-69
2023/11/24 05:02:36;;;;;;;18.17;4.03;;;9.90;99.90;;;;;;5009186;28;20111;-69
2023/11/24 05:05:04;;;;;;;17.65;3.58;;;10.00;99.90;;;;;;5025565;28;20472;-69
2023/11/24 05:07:31;;;;;;;15.02;3.70;;;9.90;99.90;;;;;;5026896;28;20049;-70
2023/11/24 05:09:58;;;;;;;17.88;2.78;;;9.90;99.90;;;;;;5029348;28;20049;-70
2023/11/24 05:12:24;;;;;;;17.98;3.92;;;9.90;99.90;;;;;;5026453;28;20048;-69
2023/11/24 05:14:51;;;;;;;17.88;2.97;;;9.90;99.90;;;;;;5026474;28;20092;-69
2023/11/24 05:17:20;;;;;;;19.08;3.33;;;9.90;99.90;;;;;;5023862;28;20049;-69
2023/11/24 05:19:47;;;;;;;26.45;3.17;;;9.90;99.90;;;;;;5024695;28;20406;-69
2023/11/24 05:22:14;;;;;;;16.67;2.63;;;9.90;99.90;;;;;;5028475;28;20484;-69
2023/11/24 05:24:41;;;;;;;27.42;4.55;;;9.90;99.90;;;;;;5029361;28;20484;-69
2023/11/24 05:27:08;;;;;;;18.30;3.88;;;9.90;99.90;;;;;;5030177;28;20046;-69
2023/11/24 05:29:35;;;;;;;15.73;3.05;;;9.90;99.90;;;;;;5030366;28;20053;-69
2023/11/24 05:32:02;;;;;;;32.33;4.85;;;9.80;99.90;;;;;;5029011;28;20057;-69
2023/11/24 05:34:29;;;;;;;17.20;3.08;;;9.90;99.90;;;;;;5029465;28;20046;-69
2023/11/24 05:36:56;;;;;;;14.98;3.47;;;9.90;99.90;;;;;;5029848;28;20378;-70
2023/11/24 05:39:23;;;;;;;19.17;3.97;;;9.90;99.90;;;;;;5031006;28;20053;-69
2023/11/24 05:41:50;;;;;;;19.55;3.40;;;9.80;99.90;;;;;;5030726;28;20037;-70
2023/11/24 05:44:18;;;;;;;16.52;3.50;;;9.90;99.90;;;;;;5031950;28;20088;-69
2023/11/24 05:46:45;;;;;;;14.68;3.50;;;9.80;99.90;;;;;;5025546;28;20048;-69
2023/11/24 05:49:14;;;;;;;22.70;3.60;;;9.80;99.90;;;;;;5013352;28;20060;-69
2023/11/24 05:51:42;;;;;;;18.50;4.82;;;9.90;99.90;;;;;;5034689;28;20057;-70
2023/11/24 05:54:12;;;;;;;14.52;3.70;;;9.80;99.90;;;;;;5032230;28;20441;-70
2023/11/24 05:56:42;;;;;;;14.55;2.63;;;9.80;99.90;;;;;;5029626;28;20394;-69
2023/11/24 05:59:09;;;;;;;17.38;4.22;;;9.80;99.90;;;;;;5028433;28;20046;-69
2023/11/24 06:01:36;;;;;;;19.02;3.65;;;9.80;99.90;;;;;;5031915;28;20053;-69
2023/11/24 06:04:03;;;;;;;19.50;3.38;;;9.80;99.90;;;;;;5030994;28;20037;-69
2023/11/24 06:06:30;;;;;;;23.00;3.47;;;9.80;99.90;;;;;;5029732;28;20053;-69
2023/11/24 06:08:57;;;;;;;15.77;3.80;;;9.80;99.90;;;;;;5011184;28;20053;-69
2023/11/24 06:11:24;;;;;;;17.67;3.33;;;9.80;99.90;;;;;;5019432;28;20569;-70
2023/11/24 06:13:53;;;;;;;21.15;3.97;;;9.80;99.90;;;;;;5029879;28;20049;-69
2023/11/24 06:16:20;;;;;;;19.38;4.65;;;9.70;99.90;;;;;;5029587;28;20132;-69
2023/11/24 06:18:47;;;;;;;20.90;3.42;;;9.70;99.90;;;;;;5021467;28;20045;-69
2023/11/24 06:21:14;;;;;;;19.83;3.50;;;9.70;99.90;;;;;;5001102;28;20245;-69
2023/11/24 06:23:45;;;;;;;11.27;2.80;;;9.70;99.90;;;;;;5021065;28;20049;-70
2023/11/24 06:26:12;;;;;;;17.73;2.92;;;9.70;99.90;;;;;;5026153;28;20053;-70
2023/11/24 06:28:39;;;;;;;17.77;3.40;;;9.70;99.90;;;;;;5008127;28;20120;-70
2023/11/24 06:31:07;;;;;;;17.02;3.58;;;9.70;99.90;;;;;;5023721;28;20046;-69
2023/11/24 06:33:37;;;;;;;21.00;4.07;;;9.70;99.90;;;;;;5028200;28;20050;-68
2023/11/24 06:36:05;;;;;;;28.85;5.05;;;9.60;99.90;;;;;;5029199;28;20065;-69
2023/11/24 06:38:31;;;;;;;21.27;3.30;;;9.70;99.90;;;;;;5027531;28;20103;-69
2023/11/24 06:40:58;;;;;;;23.13;4.78;;;9.70;99.90;;;;;;5027695;28;20131;-69
2023/11/24 06:43:25;;;;;;;19.37;2.87;;;9.60;99.90;;;;;;4677563;28;10000423;-69
2023/11/24 06:45:52;;;;;;;22.25;3.53;;;9.60;99.90;;;;;;5025795;28;20050;-70
2023/11/24 06:48:18;;;;;;;12.65;2.83;;;9.70;99.90;;;;;;5025380;28;20123;-69
2023/11/24 06:50:45;;;;;;;21.88;3.88;;;9.70;99.90;;;;;;5025379;28;20041;-70
2023/11/24 06:53:13;;;;;;;15.48;3.83;;;9.60;99.90;;;;;;5007430;28;20041;-69
2023/11/24 06:55:40;;;;;;;16.63;3.92;;;9.70;99.90;;;;;;5024889;28;20451;-69
2023/11/24 06:58:07;;;;;;;19.45;3.25;;;9.60;99.90;;;;;;5021536;28;20373;-69
2023/11/24 07:00:34;;;;;;;15.55;4.05;;;9.70;99.90;;;;;;5015184;28;20559;-69
2023/11/24 07:03:02;;;;;;;15.70;2.47;;;9.60;99.90;;;;;;5022002;28;20056;-69
2023/11/24 07:05:29;;;;;;;23.98;4.75;;;9.60;99.90;;;;;;5021397;28;20604;-69
2023/11/24 07:07:55;;;;;;;17.75;2.72;;;9.70;99.90;;;;;;5024575;28;20115;-68
2023/11/24 07:10:22;;;;;;;18.33;3.30;;;9.70;99.90;;;;;;5024482;28;20069;-68
2023/11/24 07:12:49;;;;;;;14.90;3.45;;;9.60;99.90;;;;;;5024887;28;20057;-69
2023/11/24 07:15:17;;;;;;;19.88;3.25;;;9.70;99.90;;;;;;5025084;28;20084;-68
2023/11/24 07:17:44;;;;;;;20.50;3.10;;;9.60;99.90;;;;;;5020542;28;20045;-68
2023/11/24 07:20:11;;;;;;;21.35;3.15;;;9.50;99.90;;;;;;5022321;28;20136;-68
2023/11/24 07:22:40;;;;;;;20.00;2.83;;;9.50;99.90;;;;;;5024977;28;20115;-68
2023/11/24 07:25:07;;;;;;;19.42;3.38;;;9.50;99.90;;;;;;5022674;28;20046;-68
2023/11/24 07:27:34;;;;;;;17.20;2.92;;;9.50;99.90;;;;;;5020983;28;20056;-68
2023/11/24 07:30:01;;;;;;;18.30;3.40;;;9.50;99.90;;;;;;5004202;28;20067;-67
2023/11/24 07:32:29;;;;;;;26.27;3.75;;;9.50;99.90;;;;;;5021486;28;20475;-66
2023/11/24 07:34:56;;;;;;;14.43;2.50;;;9.60;99.90;;;;;;5020951;28;20049;-67
2023/11/24 07:37:23;;;;;;;14.60;3.63;;;9.50;99.90;;;;;;5015503;28;20508;-67
2023/11/24 07:39:50;;;;;;;23.65;3.58;;;9.50;99.90;;;;;;5015603;28;20053;-66
2023/11/24 07:42:17;;;;;;;14.85;3.03;;;9.40;99.90;;;;;;5020916;28;20067;-67
2023/11/24 07:44:44;;;;;;;15.60;2.78;;;9.50;99.90;;;;;;5021360;28;20099;-67
2023/11/24 07:47:14;;;;;;;14.23;2.90;;;9.40;99.90;;;;;;5017565;28;20570;-68
2023/11/24 07:49:41;;;;;;;13.35;3.75;;;9.50;99.90;;;;;;5011631;28;20049;-67
2023/11/24 07:52:09;;;;;;;17.27;3.28;;;9.40;99.90;;;;;;5023033;28;20057;-66
2023/11/24 07:54:36;;;;;;;17.23;3.05;;;9.50;99.90;;;;;;5006710;28;20096;-67
2023/11/24 07:57:04;;;;;;;26.52;3.80;;;9.40;99.90;;;;;;5020225;28;20033;-66
2023/11/24 07:59:30;;;;;;;19.23;2.75;;;9.50;99.90;;;;;;5007889;28;20108;-67
2023/11/24 08:01:57;;;;;;;13.43;2.75;;;9.40;99.90;;;;;;5023670;28;20116;-68
2023/11/24 08:04:24;;;;;;;18.23;4.22;;;9.50;99.90;;;;;;5022925;28;20111;-67
2023/11/24 08:06:51;;;;;;;17.30;3.55;;;9.50;99.90;;;;;;5002178;28;20817;-66
2023/11/24 08:09:18;;;;;;;13.85;3.22;;;9.50;99.90;;;;;;5022325;28;20048;-68
2023/11/24 08:11:46;;;;;;;9.70;2.67;;;9.50;99.90;;;;;;5022016;28;20049;-66
2023/11/24 08:14:14;;;;;;;18.25;3.67;;;9.60;99.90;;;;;;5005753;28;20042;-66
2023/11/24 08:16:41;;;;;;;23.63;4.55;;;9.40;99.90;;;;;;5020105;28;20045;-67
2023/11/24 08:19:08;;;;;;;17.48;2.30;;;9.40;99.90;;;;;;5024631;28;20119;-66
2023/11/24 08:21:35;;;;;;;13.75;3.05;;;9.30;99.90;;;;;;5009485;28;20764;-67
2023/11/24 08:24:02;;;;;;;15.18;2.45;;;9.30;99.90;;;;;;5020729;28;20049;-66
2023/11/24 08:26:29;;;;;;;13.60;2.13;;;9.40;99.90;;;;;;5011390;28;20456;-66
2023/11/24 08:28:56;;;;;;;11.18;2.65;;;9.40;99.90;;;;;;5020972;28;20049;-66
2023/11/24 08:31:23;;;;;;;8.65;1.70;;;9.40;99.90;;;;;;5018394;28;20470;-66
2023/11/24 08:33:50;;;;;;;11.57;2.67;;;9.30;99.90;;;;;;5003290;28;20060;-66
2023/11/24 08:36:17;;;;;;;13.68;2.33;;;9.30;99.90;;;;;;5022500;28;20049;-67
2023/11/24 08:38:44;;;;;;;14.60;3.35;;;9.30;99.90;;;;;;5021750;28;20045;-66
2023/11/24 08:41:15;;;;;;;11.00;2.33;;;9.40;99.90;;;;;;5020464;28;20053;-66
2023/11/24 08:44:00;;;;;;;11.73;2.00;;;9.40;99.90;;;;;;5015937;28;20130;-66
2023/11/24 08:46:27;;;;;;;8.98;2.28;;;9.40;99.90;;;;;;4997292;28;20057;-66
2023/11/24 08:48:54;;;;;;;4.43;1.42;;;9.40;99.90;;;;;;5013901;28;20053;-66
2023/11/24 08:51:21;;;;;;;15.38;1.75;;;9.40;99.90;;;;;;5018930;28;20152;-66
2023/11/24 08:53:48;;;;;;;11.65;2.00;;;9.40;99.90;;;;;;5021879;28;20385;-66
2023/11/24 08:56:15;;;;;;;4.68;1.65;;;9.40;99.90;;;;;;5010073;28;20054;-66
2023/11/24 08:58:42;;;;;;;7.43;1.63;;;9.30;99.90;;;;;;5022564;28;20164;-65
2023/11/24 09:01:12;;;;;;;4.85;1.38;;;9.40;99.90;;;;;;5022368;28;21902;-66
2023/11/24 09:03:39;;;;;;;11.68;1.48;;;9.40;99.90;;;;;;5023919;28;20064;-67
2023/11/24 09:06:06;;;;;;;4.70;1.25;;;9.40;99.90;;;;;;5026039;28;20314;-66
2023/11/24 09:08:33;;;;;;;6.40;1.30;;;9.50;99.90;;;;;;5025004;28;20049;-65
2023/11/24 09:11:01;;;;;;;13.65;1.75;;;9.50;99.90;;;;;;5024917;28;20045;-66
2023/11/24 09:13:28;;;;;;;6.45;1.65;;;9.50;99.90;;;;;;5026613;28;20476;-66
2023/11/24 09:15:54;;;;;;;7.28;1.95;;;9.50;99.90;;;;;;5022452;28;20045;-67
2023/11/24 09:18:22;;;;;;;12.18;2.33;;;9.40;99.90;;;;;;5024741;28;20057;-68
2023/11/24 09:20:49;;;;;;;16.45;2.22;;;9.40;99.90;;;;;;5024180;28;20428;-66
2023/11/24 09:23:16;;;;;;;9.20;1.70;;;9.40;99.90;;;;;;5026419;28;20485;-67
2023/11/24 09:25:42;;;;;;;9.80;2.58;;;9.50;99.90;;;;;;5025980;28;20080;-68
2023/11/24 09:28:10;;;;;;;18.65;1.45;;;9.50;99.90;;;;;;5016677;28;20046;-68
2023/11/24 09:30:38;;;;;;;8.85;1.40;;;9.50;99.90;;;;;;5001619;28;20057;-67
2023/11/24 09:33:07;;;;;;;8.90;1.23;;;9.40;99.90;;;;;;5008309;28;20493;-67
2023/11/24 09:35:34;;;;;;;8.52;1.67;;;9.50;99.90;;;;;;5012630;28;20197;-67
2023/11/24 09:38:01;;;;;;;6.65;1.42;;;9.50;99.90;;;;;;5012070;28;20041;-68
2023/11/24 09:40:30;;;;;;;7.50;1.65;;;9.50;99.90;;;;;;5005043;28;20127;-67
2023/11/24 09:43:03;;;;;;;9.70;1.45;;;9.50;99.90;;;;;;5019768;28;20049;-67
2023/11/24 09:45:30;;;;;;;4.30;1.13;;;9.40;99.90;;;;;;5009469;28;20053;-67
2023/11/24 09:47:58;;;;;;;14.98;2.15;;;9.40;99.90;;;;;;5015390;28;20057;-65
2023/11/24 09:50:26;;;;;;;10.98;3.13;;;9.40;99.90;;;;;;5016948;28;20089;-66
2023/11/24 09:52:58;;;;;;;6.10;0.85;;;9.50;99.90;;;;;;4995236;28;20073;-66
2023/11/24 09:55:25;;;;;;;10.07;1.83;;;9.50;99.90;;;;;;5017913;28;20050;-67
2023/11/24 09:57:55;;;;;;;6.38;1.60;;;9.50;99.90;;;;;;5016821;28;20045;-67
2023/11/24 10:00:25;;;;;;;10.00;1.25;;;9.60;99.90;;;;;;4988191;28;20144;-67
2023/11/24 10:02:53;;;;;;;10.57;1.58;;;9.60;99.90;;;;;;5008446;28;20068;-67
2023/11/24 10:05:20;;;;;;;16.27;2.25;;;9.50;99.90;;;;;;5010229;28;20061;-67
2023/11/24 10:07:50;;;;;;;6.25;1.13;;;9.50;99.90;;;;;;5011494;28;20056;-67
2023/11/24 10:10:25;;;;;;;20.38;2.90;;;9.60;99.90;;;;;;5011562;28;20116;-67
2023/11/24 10:12:59;;;;;;;5.15;1.08;;;9.60;99.90;;;;;;5007866;28;20313;-65
2023/11/24 10:15:26;;;;;;;8.50;1.75;;;9.60;99.90;;;;;;5026848;28;20149;-66
2023/11/24 10:17:52;;;;;;;5.20;1.20;;;9.60;99.90;;;;;;5027291;28;20068;-67
2023/11/24 10:20:22;;;;;;;4.65;1.42;;;9.50;99.90;;;;;;5023732;28;20472;-67
2023/11/24 10:22:50;;;;;;;10.88;1.73;;;9.60;99.90;;;;;;5020869;28;20033;-66
2023/11/24 10:25:19;;;;;;;3.70;1.17;;;9.60;99.90;;;;;;4996684;28;20045;-67
2023/11/24 10:27:46;;;;;;;10.70;1.38;;;9.60;99.90;;;;;;5027297;28;20767;-67
2023/11/24 10:30:13;;;;;;;9.93;1.10;;;9.60;99.90;;;;;;5027098;28;20046;-67
2023/11/24 10:32:39;;;;;;;7.18;1.08;;;9.60;99.90;;;;;;5029054;28;20451;-66
2023/11/24 10:35:06;;;;;;;5.03;1.17;;;9.70;99.90;;;;;;5029829;28;20049;-66
2023/11/24 10:37:34;;;;;;;5.57;1.05;;;9.60;99.90;;;;;;5029633;28;20052;-66
2023/11/24 10:40:00;;;;;;;4.35;1.05;;;9.70;99.90;;;;;;5012062;28;20099;-66
2023/11/24 10:42:33;;;;;;;9.15;1.73;;;9.60;99.90;;;;;;4994699;28;20108;-67
2023/11/24 10:45:05;;;;;;;4.28;1.27;;;9.60;99.90;;;;;;5029693;28;20094;-67
2023/11/24 10:47:36;;;;;;;6.80;1.42;;;9.60;99.90;;;;;;5028348;28;20056;-66
2023/11/24 10:50:08;;;;;;;9.52;2.13;;;9.60;99.90;;;;;;5026886;28;20049;-66
2023/11/24 10:52:58;;;;;;;5.85;1.60;;;9.60;99.90;;;;;;4993750;28;20050;-66
2023/11/24 10:55:25;;;;;;;6.07;1.30;;;9.60;99.90;;;;;;5030045;28;20053;-67
2023/11/24 10:57:52;;;;;;;9.75;1.60;;;9.50;99.90;;;;;;5011929;28;20585;-67
2023/11/24 11:00:20;;;;;;;3.25;1.00;;;9.50;99.90;;;;;;5030526;28;20080;-66
2023/11/24 11:02:49;;;;;;;11.43;1.58;;;9.50;99.90;;;;;;5013753;28;20286;-66
2023/11/24 11:05:17;;;;;;;3.45;0.90;;;9.40;99.90;;;;;;5033885;28;20103;-67
2023/11/24 11:07:57;;;;;;;7.35;1.90;;;9.50;99.90;;;;;;5031111;28;20056;-66
2023/11/24 11:10:28;;;;;;;6.05;2.03;;;9.60;99.90;;;;;;4996178;28;20129;-66
2023/11/24 11:12:55;;;;;;;4.50;1.10;;;9.60;99.90;;;;;;5011887;28;20475;-66
2023/11/24 11:15:28;;;;;;;11.88;1.40;;;9.60;99.90;;;;;;4995905;28;20128;-67
2023/11/24 11:18:14;;;;;;;10.15;2.10;;;9.50;99.90;;;;;;5027707;28;20045;-67
2023/11/24 11:20:41;;;;;;;3.53;1.27;;;9.50;99.90;;;;;;5028265;28;20050;-69
2023/11/24 11:23:15;;;;;;;4.97;1.65;;;9.60;99.90;;;;;;5028609;28;20045;-66
2023/11/24 11:25:43;;;;;;;;;;;9.60;99.90;;;;;;5027198;28;20129;-66
2023/11/24 11:28:19;;;;;;;4.60;0.90;;;9.50;99.90;;;;;;5027522;28;19921;-66
2023/11/24 11:30:46;;;;;;;7.20;1.13;;;9.40;99.90;;;;;;5019294;28;20511;-66
2023/11/24 11:33:13;;;;;;;8.45;1.10;;;9.50;99.90;;;;;;5010639;28;20087;-67
2023/11/24 11:35:46;;;;;;;4.18;1.65;;;9.40;99.90;;;;;;5029557;28;20507;-69
2023/11/24 11:38:15;;;;;;;3.03;1.02;;;9.30;99.90;;;;;;5011483;28;20057;-66
2023/11/24 11:40:45;;;;;;;6.53;1.00;;;9.30;99.90;;;;;;5027500;28;20412;-66
2023/11/24 11:43:15;;;;;;;7.00;1.67;;;9.40;99.90;;;;;;5009489;28;20046;-66
2023/11/24 11:45:49;;;;;;;3.33;0.88;;;9.50;99.90;;;;;;5008253;28;20045;-66
2023/11/24 11:48:16;;;;;;;;;;;9.50;99.90;;;;;;5027795;28;20041;-65
2023/11/24 11:51:04;;;;;;;4.47;1.00;;;9.50;99.90;;;;;;5027062;28;20372;-65
2023/11/24 11:53:33;;;;;;;4.70;1.05;;;9.30;99.90;;;;;;5010732;28;20050;-66
2023/11/24 11:56:06;;;;;;;3.00;0.70;;;9.40;99.90;;;;;;5026402;28;20045;-66
2023/11/24 11:58:34;;;;;;;5.38;1.42;;;9.20;99.90;;;;;;5011080;28;20095;-66
2023/11/24 12:01:05;;;;;;;3.08;0.90;;;9.10;99.90;;;;;;4661388;28;9999887;-64
2023/11/24 12:03:32;;;;;;;6.97;1.42;;;9.00;99.90;;;;;;5009556;28;20129;-66
2023/11/24 12:06:05;;;;;;;2.65;0.80;;;9.00;99.90;;;;;;5027649;28;20053;-66
2023/11/24 12:08:33;;;;;;;9.60;0.90;;;9.00;99.90;;;;;;5009324;28;20041;-66
2023/11/24 12:11:00;;;;;;;3.30;0.80;;;9.10;99.90;;;;;;5027986;28;20049;-66
2023/11/24 12:13:29;;;;;;;3.30;1.05;;;9.20;99.90;;;;;;5027595;28;20049;-65
2023/11/24 12:15:59;;;;;;;6.80;1.65;;;9.10;99.90;;;;;;5028000;28;20041;-65
2023/11/24 12:18:26;;;;;;;11.50;0.90;;;8.90;99.90;;;;;;5028346;28;20037;-65
2023/11/24 12:20:53;;;;;;;3.63;0.70;;;8.80;99.90;;;;;;5027091;28;20045;-66
2023/11/24 12:23:20;;;;;;;4.82;0.57;;;8.70;99.90;;;;;;5028059;28;20118;-65
2023/11/24 12:25:47;;;;;;;3.03;0.70;;;8.60;99.90;;;;;;5004788;28;20492;-65
2023/11/24 12:28:13;;;;;;;2.88;0.50;;;8.50;99.90;;;;;;5010482;28;20053;-65
2023/11/24 12:30:42;;;;;;;2.80;0.80;;;8.30;99.90;;;;;;5025045;28;20095;-65
2023/11/24 12:33:19;;;;;;;3.70;0.68;;;8.20;99.90;;;;;;5026364;28;20265;-64
2023/11/24 12:35:50;;;;;;;5.85;1.20;;;8.30;99.90;;;;;;5026942;28;20497;-65
2023/11/24 12:38:17;;;;;;;1.27;0.55;;;8.40;99.90;;;;;;5026166;28;20137;-67
2023/11/24 12:40:44;;;;;;;3.80;0.80;;;8.40;99.90;;;;;;5026177;28;20139;-67
2023/11/24 12:43:12;;;;;;;4.45;0.90;;;8.40;99.90;;;;;;5010506;28;20072;-67
2023/11/24 12:45:42;;;;;;;5.10;0.57;;;8.30;99.90;;;;;;5010408;28;21022;-67
2023/11/24 12:48:27;;;;;;;5.85;0.98;;;8.30;99.90;;;;;;5025722;28;20068;-66
2023/11/24 12:50:57;;;;;;;10.45;0.82;;;8.20;99.90;;;;;;5023278;28;20524;-66